Time;durP1;ratioP1;P1;durP2;ratioP2;P2;SDS_P1;SDS_P2;PMS_P1;PMS_P2;Temp;Humidity;BMP_temperature;BMP_pressure;BME280_temperature;BME280_humidity;BME280_pressure;Samples;Min_cycle;Max_cycle;Signal;HPM_P1;HPM_P2
2022/04/15 09:16:43;;;;;;;13.77;12.48;;;20.70;44.10;;;;;;6282315;22;20247;-93
2022/04/15 09:19:29;;;;;;;14.88;13.32;;;20.70;38.70;;;;;;6219335;23;20273;-94
2022/04/15 09:22:30;;;;;;;13.75;12.40;;;20.40;42.70;;;;;;6220614;23;20178;-94
2022/04/15 09:25:17;;;;;;;12.98;11.70;;;20.00;40.70;;;;;;6075544;23;20169;-93
2022/04/15 09:32:00;;;;;;;13.73;12.40;;;19.40;45.40;;;;;;6086577;23;20568;-93
2022/04/15 09:38:40;;;;;;;11.63;10.43;;;19.30;46.20;;;;;;6123926;23;20180;-93
2022/04/15 09:41:19;;;;;;;11.52;10.52;;;19.80;42.50;;;;;;6127954;23;20179;-91
2022/04/15 09:44:12;;;;;;;11.65;10.68;;;22.00;35.80;;;;;;6125751;23;20166;-89
2022/04/15 09:46:41;;;;;;;11.57;10.40;;;22.80;31.10;;;;;;6125700;23;20175;-87
2022/04/15 09:49:12;;;;;;;11.02;10.02;;;24.30;27.30;;;;;;6173558;22;20207;-88
2022/04/15 09:51:44;;;;;;;10.10;9.13;;;26.00;21.50;;;;;;6278736;22;20182;-88
2022/04/15 09:54:23;;;;;;;10.65;9.75;;;26.80;19.90;;;;;;6251711;22;20228;-88
2022/04/15 09:57:00;;;;;;;10.65;9.40;;;27.40;18.60;;;;;;6278317;22;20160;-88
2022/04/15 09:59:30;;;;;;;10.65;9.65;;;26.90;17.50;;;;;;6277716;22;20163;-88
2022/04/15 10:02:18;;;;;;;11.15;9.60;;;28.20;15.80;;;;;;6279903;22;20161;-88
2022/04/15 10:04:45;;;;;;;10.60;9.60;;;29.30;16.30;;;;;;6278318;22;20156;-88
2022/04/15 10:07:13;;;;;;;8.98;8.27;;;28.00;15.70;;;;;;6278439;22;20653;-88
2022/04/15 10:09:50;;;;;;;11.10;10.10;;;28.80;14.70;;;;;;6278071;22;20468;-88
2022/04/15 10:12:19;;;;;;;11.13;10.07;;;28.60;15.90;;;;;;6278095;22;20170;-88
2022/04/15 10:14:47;;;;;;;11.32;10.25;;;26.80;17.20;;;;;;6251271;22;20184;-87
2022/04/15 10:17:25;;;;;;;10.02;9.00;;;24.70;20.80;;;;;;6277440;22;20172;-87
2022/04/15 10:19:54;;;;;;;8.50;7.70;;;22.80;20.40;;;;;;6278285;22;20164;-90
2022/04/15 10:22:24;;;;;;;8.23;7.43;;;22.60;22.50;;;;;;6278006;22;20551;-87
2022/04/15 10:25:17;;;;;;;8.55;7.57;;;23.10;22.30;;;;;;6277243;22;20172;-88
2022/04/15 10:27:50;;;;;;;9.18;8.10;;;23.10;20.00;;;;;;6278584;22;20160;-88
2022/04/15 10:30:51;;;;;;;8.77;7.97;;;22.90;19.10;;;;;;6279035;22;20476;-87
2022/04/15 10:33:31;;;;;;;7.97;7.20;;;24.00;19.30;;;;;;6279077;22;20168;-87
2022/04/15 10:36:21;;;;;;;7.60;6.90;;;25.30;19.50;;;;;;6278862;22;20479;-87
2022/04/15 10:39:19;;;;;;;7.95;7.25;;;26.40;17.40;;;;;;6279012;22;20156;-88
2022/04/15 10:42:18;;;;;;;7.60;6.90;;;27.60;14.00;;;;;;6278089;22;20168;-88
2022/04/15 10:44:46;;;;;;;7.15;6.50;;;28.10;15.50;;;;;;6277807;22;20545;-88
2022/04/15 10:47:34;;;;;;;8.88;7.53;;;28.00;13.70;;;;;;6276595;22;20521;-88
2022/04/15 10:50:15;;;;;;;7.57;6.85;;;27.30;11.70;;;;;;6278455;22;20283;-88
2022/04/15 10:53:14;;;;;;;7.28;6.65;;;25.40;14.40;;;;;;6277800;22;20160;-87
2022/04/15 10:55:52;;;;;;;7.05;6.38;;;24.50;16.30;;;;;;6278407;22;20160;-89
2022/04/15 11:13:05;;;;;;;8.30;7.47;;;22.40;20.30;;;;;;6087283;23;20223;-93
2022/04/15 14:05:18;;;;;;;9.15;7.47;;;20.50;23.80;;;;;;6212694;23;20173;-93
2022/04/15 14:08:06;;;;;;;7.10;6.40;;;20.20;26.30;;;;;;6204957;23;20493;-93
2022/04/15 21:31:04;;;;;;;6.75;5.43;;;11.10;74.20;;;;;;6167196;23;20724;-91
2022/04/15 21:36:58;;;;;;;6.85;5.00;;;11.00;74.10;;;;;;6168264;23;20192;-91
2022/04/15 21:42:53;;;;;;;7.65;5.32;;;10.80;74.00;;;;;;6168016;23;20147;-92
2022/04/15 21:55:23;;;;;;;5.35;4.57;;;10.60;76.30;;;;;;6167788;23;20474;-91
2022/04/15 22:01:15;;;;;;;5.47;4.60;;;10.60;75.50;;;;;;6167712;23;20171;-92
